Time;durP1;ratioP1;P1;durP2;ratioP2;P2;SDS_P1;SDS_P2;PMS_P1;PMS_P2;Temp;Humidity;BMP_temperature;BMP_pressure;BME280_temperature;BME280_humidity;BME280_pressure;Samples;Min_cycle;Max_cycle;Signal;HPM_P1;HPM_P2
2023/10/14 00:00:25;;;;;;;;;;;;;;;;;;7368561;19;1841;-44
2023/10/14 00:02:54;;;;;;;;;;;;;;;;;;7367227;19;1406;-43
2023/10/14 00:05:22;;;;;;;;;;;;;;;;;;7366747;19;813;-43
2023/10/14 00:07:52;;;;;;;;;;;;;;;;;;7368605;19;1592;-43
2023/10/14 00:10:22;;;;;;;;;;;;;;;;;;7371101;19;1688;-43
2023/10/14 00:12:53;;;;;;;;;;;;;;;;;;7367247;19;1329;-43
2023/10/14 00:15:22;;;;;;;;;;;;;;;;;;7369416;19;1789;-43
2023/10/14 00:17:50;;;;;;;;;;;;;;;;;;7371552;19;1632;-43
2023/10/14 00:20:18;;;;;;;;;;;;;;;;;;7363838;19;1845;-43
2023/10/14 00:22:46;;;;;;;;;;;;;;;;;;7366557;19;1249;-43
2023/10/14 00:25:19;;;;;;;;;;;;;;;;;;7366087;19;908;-43
2023/10/14 00:27:50;;;;;;;;;;;;;;;;;;7368641;19;1759;-43
2023/10/14 00:30:20;;;;;;;;;;;;;;;;;;7369187;19;1476;-42
2023/10/14 00:32:48;;;;;;;;;;;;;;;;;;7365358;19;1836;-41
2023/10/14 00:35:18;;;;;;;;;;;;;;;;;;7363961;19;810;-42
2023/10/14 00:37:46;;;;;;;;;;;;;;;;;;7369705;19;1696;-42
2023/10/14 00:40:22;;;;;;;;;;;;;;;;;;7366820;19;1849;-43
2023/10/14 00:42:50;;;;;;;;;;;;;;;;;;7368828;19;1479;-44
2023/10/14 00:45:20;;;;;;;;;;;;;;;;;;7365181;19;1995;-42
2023/10/14 00:47:48;;;;;;;;;;;;;;;;;;7370542;19;1470;-42
2023/10/14 00:50:32;;;;;;;;;;;;;;;;;;7364289;19;859;-43
2023/10/14 00:53:04;;;;;;;;;;;;;;;;;;7365307;19;1348;-43
2023/10/14 00:55:46;;;;;;;;;;;;;;;;;;7365618;19;556;-41
2023/10/14 00:58:20;;;;;;;;;;;;;;;;;;7366663;19;1980;-44
2023/10/14 01:00:56;;;;;;;;;;;;;;;;;;7367045;19;1846;-43
2023/10/14 01:03:25;;;;;;;;;;;;;;;;;;7366879;19;1668;-43
2023/10/14 01:05:53;;;;;;;;;;;;;;;;;;7367677;19;1788;-43
2023/10/14 01:08:22;;;;;;;;;;;;;;;;;;7368525;19;1663;-44
2023/10/14 01:10:50;;;;;;;;;;;;;;;;;;7368556;19;1736;-44
2023/10/14 01:13:22;;;;;;;;;;;;;;;;;;7366923;19;1689;-44
2023/10/14 01:15:51;;;;;;;;;;;;;;;;;;7366891;19;1985;-44
2023/10/14 01:18:19;;;;;;;;;;;;;;;;;;7366872;19;1683;-43
2023/10/14 01:20:47;;;;;;;;;;;;;;;;;;7365014;19;1845;-44
2023/10/14 01:23:17;;;;;;;;;;;;;;;;;;7365735;19;1712;-43
2023/10/14 01:25:52;;;;;;;;;;;;;;;;;;7363589;19;1705;-44
2023/10/14 01:28:29;;;;;;;;;;;;;;;;;;7366814;19;1442;-42
2023/10/14 01:31:06;;;;;;;;;;;;;;;;;;7364423;19;719;-42
2023/10/14 01:33:36;;;;;;;;;;;;;;;;;;7362088;19;1387;-43
2023/10/14 01:36:04;;;;;;;;;;;;;;;;;;7363499;19;1678;-43
2023/10/14 01:38:32;;;;;;;;;;;;;;;;;;7366717;19;1845;-43
2023/10/14 01:41:04;;;;;;;;;;;;;;;;;;7362589;19;1879;-43
2023/10/14 01:43:32;;;;;;;;;;;;;;;;;;7364793;19;1949;-43
2023/10/14 01:46:09;;;;;;;;;;;;;;;;;;7368731;19;851;-44
2023/10/14 01:48:38;;;;;;;;;;;;;;;;;;7371451;19;750;-43
2023/10/14 01:51:09;;;;;;;;;;;;;;;;;;7369523;19;794;-43
2023/10/14 01:53:38;;;;;;;;;;;;;;;;;;7367676;19;1956;-43
2023/10/14 01:56:06;;;;;;;;;;;;;;;;;;7371820;19;2097;-43
2023/10/14 01:58:36;;;;;;;;;;;;;;;;;;7373499;19;1700;-43
2023/10/14 02:01:12;;;;;;;;;;;;;;;;;;7370779;19;1849;-45
2023/10/14 02:03:45;;;;;;;;;;;;;;;;;;7372130;19;1558;-43
2023/10/14 02:06:20;;;;;;;;;;;;;;;;;;7372594;19;1459;-42
2023/10/14 02:08:48;;;;;;;;;;;;;;;;;;7374804;19;1816;-42
2023/10/14 02:11:20;;;;;;;;;;;;;;;;;;7368551;19;878;-43
2023/10/14 02:13:50;;;;;;;;;;;;;;;;;;7369606;19;1295;-42
2023/10/14 02:16:18;;;;;;;;;;;;;;;;;;7369812;19;882;-43
2023/10/14 02:18:46;;;;;;;;;;;;;;;;;;7372606;19;2162;-44
2023/10/14 02:21:16;;;;;;;;;;;;;;;;;;7367658;19;1837;-44
2023/10/14 02:23:47;;;;;;;;;;;;;;;;;;7367317;19;1284;-43
2023/10/14 02:26:17;;;;;;;;;;;;;;;;;;7369209;19;1695;-43
2023/10/14 02:28:46;;;;;;;;;;;;;;;;;;7371842;19;1689;-44
2023/10/14 02:31:29;;;;;;;;;;;;;;;;;;7370343;19;803;-44
2023/10/14 02:33:57;;;;;;;;;;;;;;;;;;7368266;19;1257;-43
2023/10/14 02:36:28;;;;;;;;;;;;;;;;;;7370970;19;2083;-43
2023/10/14 02:38:57;;;;;;;;;;;;;;;;;;7372869;19;1930;-43
2023/10/14 02:41:26;;;;;;;;;;;;;;;;;;7371099;19;1861;-43
2023/10/14 02:44:02;;;;;;;;;;;;;;;;;;7368154;19;2115;-43
2023/10/14 02:46:30;;;;;;;;;;;;;;;;;;7371777;19;1673;-43
2023/10/14 02:49:02;;;;;;;;;;;;;;;;;;7371221;19;1831;-43
2023/10/14 02:51:42;;;;;;;;;;;;;;;;;;7373964;19;1629;-42
2023/10/14 02:54:18;;;;;;;;;;;;;;;;;;7365974;19;1403;-43
2023/10/14 02:56:56;;;;;;;;;;;;;;;;;;7368372;19;1746;-43
2023/10/14 02:59:35;;;;;;;;;;;;;;;;;;7372815;19;1464;-43
2023/10/14 03:02:14;;;;;;;;;;;;;;;;;;7366357;19;2110;-43
2023/10/14 03:04:49;;;;;;;;;;;;;;;;;;7367795;19;1840;-43
2023/10/14 03:07:23;;;;;;;;;;;;;;;;;;7372277;19;1658;-45
2023/10/14 03:09:48;;;;;;;;;;;;;;;;;;7367045;19;724;-43
2023/10/14 03:12:18;;;;;;;;;;;;;;;;;;7368739;19;790;-43
2023/10/14 03:14:48;;;;;;;;;;;;;;;;;;7367578;19;1699;-44
2023/10/14 03:17:21;;;;;;;;;;;;;;;;;;7371520;19;1209;-41
2023/10/14 03:19:52;;;;;;;;;;;;;;;;;;7368462;19;1855;-44
2023/10/14 03:22:22;;;;;;;;;;;;;;;;;;7368478;19;730;-44
2023/10/14 03:24:50;;;;;;;;;;;;;;;;;;7362950;19;1296;-54
2023/10/14 03:27:18;;;;;;;;;;;;;;;;;;7369713;19;1699;-43
2023/10/14 03:29:54;;;;;;;;;;;;;;;;;;7371482;19;1820;-42
2023/10/14 03:32:32;;;;;;;;;;;;;;;;;;7373202;19;1997;-41
2023/10/14 03:35:03;;;;;;;;;;;;;;;;;;7364583;19;1350;-43
2023/10/14 03:37:35;;;;;;;;;;;;;;;;;;7368538;19;837;-43
2023/10/14 03:42:52;;;;;;;;;;;;;;;;;;7371485;19;1919;-43
2023/10/14 03:45:24;;;;;;;;;;;;;;;;;;7367407;19;1703;-43
2023/10/14 03:47:59;;;;;;;;;;;;;;;;;;7368023;19;857;-43
2023/10/14 03:50:28;;;;;;;;;;;;;;;;;;7371035;19;2007;-42
2023/10/14 03:52:57;;;;;;;;;;;;;;;;;;7371580;19;1539;-43
2023/10/14 03:55:27;;;;;;;;;;;;;;;;;;7366723;19;825;-43
2023/10/14 03:58:03;;;;;;;;;;;;;;;;;;7370529;19;1797;-42
2023/10/14 04:00:36;;;;;;;;;;;;;;;;;;7369792;19;2029;-43
2023/10/14 04:03:06;;;;;;;;;;;;;;;;;;7369242;19;1462;-43
2023/10/14 04:05:37;;;;;;;;;;;;;;;;;;7366535;19;797;-43
2023/10/14 04:08:05;;;;;;;;;;;;;;;;;;7365917;19;902;-44
2023/10/14 04:10:37;;;;;;;;;;;;;;;;;;7369007;19;1654;-43
2023/10/14 04:13:12;;;;;;;;;;;;;;;;;;7369592;19;1459;-42
2023/10/14 04:15:48;;;;;;;;;;;;;;;;;;7367123;19;795;-43
2023/10/14 04:18:24;;;;;;;;;;;;;;;;;;7368327;19;2095;-43
2023/10/14 04:21:10;;;;;;;;;;;;;;;;;;7370366;19;1849;-43
2023/10/14 04:23:48;;;;;;;;;;;;;;;;;;7365757;19;1637;-43
2023/10/14 04:26:21;;;;;;;;;;;;;;;;;;7369824;19;1332;-43
2023/10/14 04:28:58;;;;;;;;;;;;;;;;;;7366971;19;779;-48
2023/10/14 04:31:39;;;;;;;;;;;;;;;;;;7366237;19;1047;-46
2023/10/14 04:34:07;;;;;;;;;;;;;;;;;;7365259;19;1345;-48
2023/10/14 04:36:53;;;;;;;;;;;;;;;;;;7368300;19;1744;-50
2023/10/14 04:39:26;;;;;;;;;;;;;;;;;;7370353;19;1678;-47
2023/10/14 04:44:45;;;;;;;;;;;;;;;;;;7361162;19;1311;-48
2023/10/14 04:47:19;;;;;;;;;;;;;;;;;;7369592;19;1932;-49
2023/10/14 04:49:51;;;;;;;;;;;;;;;;;;7369480;19;1679;-49
2023/10/14 04:52:22;;;;;;;;;;;;;;;;;;7369850;19;1478;-49
2023/10/14 04:55:08;;;;;;;;;;;;;;;;;;7366000;19;1699;-46
2023/10/14 04:57:40;;;;;;;;;;;;;;;;;;7369880;19;1651;-48
2023/10/14 05:00:19;;;;;;;;;;;;;;;;;;7365818;19;768;-46
2023/10/14 05:02:47;;;;;;;;;;;;;;;;;;7365515;19;1324;-45
2023/10/14 05:05:19;;;;;;;;;;;;;;;;;;7367841;19;1816;-45
2023/10/14 05:07:47;;;;;;;;;;;;;;;;;;7369710;19;1463;-46
2023/10/14 05:10:16;;;;;;;;;;;;;;;;;;7365389;19;785;-47
2023/10/14 05:12:51;;;;;;;;;;;;;;;;;;7363206;19;1829;-46
2023/10/14 05:15:25;;;;;;;;;;;;;;;;;;7367448;19;1930;-48
2023/10/14 05:18:00;;;;;;;;;;;;;;;;;;7368820;19;1793;-49
2023/10/14 05:20:49;;;;;;;;;;;;;;;;;;7373627;19;1846;-45
2023/10/14 05:23:19;;;;;;;;;;;;;;;;;;7374456;19;1663;-42
2023/10/14 05:25:48;;;;;;;;;;;;;;;;;;7373832;19;1604;-42
2023/10/14 05:28:16;;;;;;;;;;;;;;;;;;7371939;19;1766;-43
2023/10/14 05:30:46;;;;;;;;;;;;;;;;;;7375652;19;1468;-43
2023/10/14 05:33:14;;;;;;;;;;;;;;;;;;7371272;19;2035;-41
2023/10/14 05:35:42;;;;;;;;;;;;;;;;;;7374299;19;1462;-42
2023/10/14 05:38:14;;;;;;;;;;;;;;;;;;7371714;19;787;-43
2023/10/14 05:40:42;;;;;;;;;;;;;;;;;;7369717;19;1849;-42
2023/10/14 05:43:10;;;;;;;;;;;;;;;;;;7370692;19;1283;-42
2023/10/14 05:45:38;;;;;;;;;;;;;;;;;;7368717;19;875;-42
2023/10/14 05:48:07;;;;;;;;;;;;;;;;;;7371080;19;877;-42
2023/10/14 05:50:35;;;;;;;;;;;;;;;;;;7370463;19;890;-42
2023/10/14 05:53:07;;;;;;;;;;;;;;;;;;7371111;19;1329;-42
2023/10/14 05:55:35;;;;;;;;;;;;;;;;;;7370576;19;828;-42
2023/10/14 05:58:06;;;;;;;;;;;;;;;;;;7372147;19;1983;-47
2023/10/14 06:00:38;;;;;;;;;;;;;;;;;;7373085;19;1854;-42
2023/10/14 06:03:11;;;;;;;;;;;;;;;;;;7372133;19;1495;-41
2023/10/14 06:05:39;;;;;;;;;;;;;;;;;;7365887;19;800;-42
2023/10/14 06:08:16;;;;;;;;;;;;;;;;;;7370754;19;797;-42
2023/10/14 06:10:44;;;;;;;;;;;;;;;;;;7370116;19;814;-41
2023/10/14 06:13:13;;;;;;;;;;;;;;;;;;7370440;19;1329;-41
2023/10/14 06:15:41;;;;;;;;;;;;;;;;;;7369329;19;821;-42
2023/10/14 06:18:13;;;;;;;;;;;;;;;;;;7369837;19;811;-42
2023/10/14 06:20:41;;;;;;;;;;;;;;;;;;7370056;19;1839;-42
2023/10/14 06:23:11;;;;;;;;;;;;;;;;;;7369218;19;1355;-42
2023/10/14 06:25:39;;;;;;;;;;;;;;;;;;7368918;19;844;-41
2023/10/14 06:28:07;;;;;;;;;;;;;;;;;;7369863;19;873;-41
2023/10/14 06:30:35;;;;;;;;;;;;;;;;;;7368995;19;1821;-43
2023/10/14 06:33:06;;;;;;;;;;;;;;;;;;7372808;19;1908;-49
2023/10/14 06:35:35;;;;;;;;;;;;;;;;;;7370746;19;1875;-44
2023/10/14 06:38:04;;;;;;;;;;;;;;;;;;7372581;19;1226;-45
2023/10/14 06:40:35;;;;;;;;;;;;;;;;;;7370814;19;1734;-44
2023/10/14 06:43:06;;;;;;;;;;;;;;;;;;7369500;19;1850;-42
2023/10/14 06:45:35;;;;;;;;;;;;;;;;;;7369213;19;715;-45
2023/10/14 06:48:03;;;;;;;;;;;;;;;;;;7370351;19;766;-53
2023/10/14 06:50:32;;;;;;;;;;;;;;;;;;7369533;19;803;-54
2023/10/14 06:53:00;;;;;;;;;;;;;;;;;;7369779;19;1380;-53
2023/10/14 06:55:33;;;;;;;;;;;;;;;;;;7371306;19;1485;-56
2023/10/14 06:58:01;;;;;;;;;;;;;;;;;;7369463;19;818;-56
2023/10/14 07:00:29;;;;;;;;;;;;;;;;;;7368482;19;1699;-47
2023/10/14 07:02:59;;;;;;;;;;;;;;;;;;7369781;19;1857;-52
2023/10/14 07:05:27;;;;;;;;;;;;;;;;;;7372207;19;1488;-51
2023/10/14 07:07:55;;;;;;;;;;;;;;;;;;7369018;19;802;-51
2023/10/14 07:10:27;;;;;;;;;;;;;;;;;;7370718;19;1721;-54
2023/10/14 07:12:57;;;;;;;;;;;;;;;;;;7373500;19;1492;-50
2023/10/14 07:15:25;;;;;;;;;;;;;;;;;;7367850;19;841;-43
2023/10/14 07:17:54;;;;;;;;;;;;;;;;;;7371065;19;1569;-43
2023/10/14 07:20:22;;;;;;;;;;;;;;;;;;7374533;19;1465;-44
2023/10/14 07:22:50;;;;;;;;;;;;;;;;;;7367887;19;1841;-44
2023/10/14 07:25:18;;;;;;;;;;;;;;;;;;7368387;19;857;-43
2023/10/14 07:27:51;;;;;;;;;;;;;;;;;;7369731;19;896;-40
2023/10/14 07:30:19;;;;;;;;;;;;;;;;;;7370132;19;1698;-42
2023/10/14 07:32:47;;;;;;;;;;;;;;;;;;7373124;19;1695;-43
2023/10/14 07:35:16;;;;;;;;;;;;;;;;;;7372262;19;1654;-44
2023/10/14 07:37:46;;;;;;;;;;;;;;;;;;7369416;19;898;-42
2023/10/14 07:40:22;;;;;;;;;;;;;;;;;;7368357;19;828;-42
2023/10/14 07:42:52;;;;;;;;;;;;;;;;;;7366965;19;1914;-41
2023/10/14 07:45:20;;;;;;;;;;;;;;;;;;7371641;19;1502;-42
2023/10/14 07:47:48;;;;;;;;;;;;;;;;;;7368136;19;808;-42
2023/10/14 07:50:16;;;;;;;;;;;;;;;;;;7368694;19;886;-42
2023/10/14 07:52:45;;;;;;;;;;;;;;;;;;7369354;19;1700;-41
2023/10/14 07:55:15;;;;;;;;;;;;;;;;;;7369973;19;1656;-41
2023/10/14 07:57:46;;;;;;;;;;;;;;;;;;7367819;19;1891;-41
2023/10/14 08:00:14;;;;;;;;;;;;;;;;;;7371184;19;1456;-41
2023/10/14 08:02:42;;;;;;;;;;;;;;;;;;7367218;19;2130;-41
2023/10/14 08:05:11;;;;;;;;;;;;;;;;;;7369895;19;1452;-42
2023/10/14 08:07:45;;;;;;;;;;;;;;;;;;7367014;19;864;-41
2023/10/14 08:10:22;;;;;;;;;;;;;;;;;;7370468;19;1830;-42
2023/10/14 08:12:50;;;;;;;;;;;;;;;;;;7370113;19;1877;-43
2023/10/14 08:15:18;;;;;;;;;;;;;;;;;;7369989;19;1463;-41
2023/10/14 08:17:48;;;;;;;;;;;;;;;;;;7367091;19;871;-41
2023/10/14 08:20:18;;;;;;;;;;;;;;;;;;7366741;19;843;-41
2023/10/14 08:22:47;;;;;;;;;;;;;;;;;;7364939;19;1865;-41
2023/10/14 08:25:18;;;;;;;;;;;;;;;;;;7366080;19;870;-41
2023/10/14 08:27:46;;;;;;;;;;;;;;;;;;7367859;19;841;-41
2023/10/14 08:30:16;;;;;;;;;;;;;;;;;;7366640;19;843;-44
2023/10/14 08:32:44;;;;;;;;;;;;;;;;;;7369071;19;1701;-41
2023/10/14 08:35:17;;;;;;;;;;;;;;;;;;7369198;19;1223;-40
2023/10/14 08:37:47;;;;;;;;;;;;;;;;;;7366981;19;732;-44
2023/10/14 08:40:16;;;;;;;;;;;;;;;;;;7368262;19;1646;-43
2023/10/14 08:42:44;;;;;;;;;;;;;;;;;;7368914;19;1846;-42
2023/10/14 08:45:12;;;;;;;;;;;;;;;;;;7366188;19;801;-41
2023/10/14 08:47:40;;;;;;;;;;;;;;;;;;7366039;19;879;-41
2023/10/14 08:50:09;;;;;;;;;;;;;;;;;;7365251;19;2114;-40
2023/10/14 08:52:38;;;;;;;;;;;;;;;;;;7370063;19;1918;-41
2023/10/14 08:55:06;;;;;;;;;;;;;;;;;;7376369;19;1931;-41
2023/10/14 08:57:34;;;;;;;;;;;;;;;;;;7377099;19;1485;-41
2023/10/14 09:00:05;;;;;;;;;;;;;;;;;;7374308;19;2100;-44
2023/10/14 09:02:36;;;;;;;;;;;;;;;;;;7375006;19;1853;-41
2023/10/14 09:05:04;;;;;;;;;;;;;;;;;;7369876;19;1365;-43
2023/10/14 09:07:33;;;;;;;;;;;;;;;;;;7374651;19;1997;-42
2023/10/14 09:10:01;;;;;;;;;;;;;;;;;;7374348;19;1704;-42
2023/10/14 09:12:30;;;;;;;;;;;;;;;;;;7373964;19;1581;-55
2023/10/14 09:14:58;;;;;;;;;;;;;;;;;;7373551;19;1830;-42
2023/10/14 09:17:28;;;;;;;;;;;;;;;;;;7376523;19;1640;-42
2023/10/14 09:19:56;;;;;;;;;;;;;;;;;;7372063;19;920;-44
2023/10/14 09:22:24;;;;;;;;;;;;;;;;;;7371130;19;1846;-45
2023/10/14 09:24:52;;;;;;;;;;;;;;;;;;7369422;19;1278;-43
2023/10/14 09:27:21;;;;;;;;;;;;;;;;;;7372511;19;762;-43
2023/10/14 09:29:49;;;;;;;;;;;;;;;;;;7373071;19;1741;-43
2023/10/14 09:32:17;;;;;;;;;;;;;;;;;;7374887;19;1653;-43
2023/10/14 09:34:45;;;;;;;;;;;;;;;;;;7369248;19;1281;-43
2023/10/14 09:37:17;;;;;;;;;;;;;;;;;;7371280;19;874;-44
2023/10/14 09:39:48;;;;;;;;;;;;;;;;;;7370960;19;1633;-44
2023/10/14 09:42:16;;;;;;;;;;;;;;;;;;7373598;19;1845;-43
2023/10/14 09:44:45;;;;;;;;;;;;;;;;;;7369114;19;1878;-41
2023/10/14 09:47:13;;;;;;;;;;;;;;;;;;7373870;19;1533;-44
2023/10/14 09:49:41;;;;;;;;;;;;;;;;;;7370878;19;864;-44
2023/10/14 09:52:14;;;;;;;;;;;;;;;;;;7371096;19;821;-56
2023/10/14 09:54:42;;;;;;;;;;;;;;;;;;7369008;19;1371;-52
2023/10/14 09:57:10;;;;;;;;;;;;;;;;;;7371021;19;860;-51
2023/10/14 09:59:38;;;;;;;;;;;;;;;;;;7370261;19;880;-46
2023/10/14 10:02:09;;;;;;;;;;;;;;;;;;7369815;19;1845;-43
2023/10/14 10:04:37;;;;;;;;;;;;;;;;;;7366814;19;1728;-57
2023/10/14 10:07:06;;;;;;;;;;;;;;;;;;7369898;19;1927;-54
2023/10/14 10:09:34;;;;;;;;;;;;;;;;;;7373810;19;1849;-43
2023/10/14 10:12:04;;;;;;;;;;;;;;;;;;7373923;19;1676;-41
2023/10/14 10:14:32;;;;;;;;;;;;;;;;;;7367901;19;2110;-40
2023/10/14 10:17:03;;;;;;;;;;;;;;;;;;7373358;19;1668;-43
2023/10/14 10:19:31;;;;;;;;;;;;;;;;;;7371139;19;799;-49
2023/10/14 10:21:59;;;;;;;;;;;;;;;;;;7369959;19;1835;-41
2023/10/14 10:24:27;;;;;;;;;;;;;;;;;;7368854;19;1819;-48
2023/10/14 10:26:55;;;;;;;;;;;;;;;;;;7373999;19;1362;-47
2023/10/14 10:29:24;;;;;;;;;;;;;;;;;;7370667;19;1927;-48
2023/10/14 10:31:52;;;;;;;;;;;;;;;;;;7373159;19;1662;-42
